sensor_id;sensor_type;location;lat;lon;timestamp;P1;durP1;ratioP1;P2;durP2;ratioP2
10847;SDS011;5477;48.806;9.154;2024-02-26T00:01:55;3.03;;;1.70;;
10847;SDS011;5477;48.806;9.154;2024-02-26T00:04:23;2.40;;;1.70;;
10847;SDS011;5477;48.806;9.154;2024-02-26T00:06:51;2.97;;;1.70;;
10847;SDS011;5477;48.806;9.154;2024-02-26T00:09:22;2.97;;;1.83;;
10847;SDS011;5477;48.806;9.154;2024-02-26T00:11:51;2.73;;;1.60;;
10847;SDS011;5477;48.806;9.154;2024-02-26T00:14:20;2.13;;;1.67;;
10847;SDS011;5477;48.806;9.154;2024-02-26T00:16:48;2.70;;;1.60;;
10847;SDS011;5477;48.806;9.154;2024-02-26T00:19:16;3.20;;;1.50;;
10847;SDS011;5477;48.806;9.154;2024-02-26T00:21:44;3.83;;;1.70;;
10847;SDS011;5477;48.806;9.154;2024-02-26T00:24:12;1.97;;;1.50;;
10847;SDS011;5477;48.806;9.154;2024-02-26T00:26:41;3.47;;;2.10;;
10847;SDS011;5477;48.806;9.154;2024-02-26T00:29:10;2.00;;;1.40;;
10847;SDS011;5477;48.806;9.154;2024-02-26T00:31:38;3.33;;;1.70;;
10847;SDS011;5477;48.806;9.154;2024-02-26T00:34:06;1.87;;;1.50;;
10847;SDS011;5477;48.806;9.154;2024-02-26T00:36:35;1.67;;;1.33;;
10847;SDS011;5477;48.806;9.154;2024-02-26T00:39:03;2.17;;;1.60;;
10847;SDS011;5477;48.806;9.154;2024-02-26T00:41:31;2.07;;;1.50;;
10847;SDS011;5477;48.806;9.154;2024-02-26T00:43:58;1.70;;;1.50;;
10847;SDS011;5477;48.806;9.154;2024-02-26T00:46:28;2.33;;;1.67;;
10847;SDS011;5477;48.806;9.154;2024-02-26T00:48:56;1.70;;;1.30;;
10847;SDS011;5477;48.806;9.154;2024-02-26T00:51:24;2.73;;;1.70;;
10847;SDS011;5477;48.806;9.154;2024-02-26T00:53:53;2.70;;;1.40;;
10847;SDS011;5477;48.806;9.154;2024-02-26T00:56:21;1.90;;;1.30;;
10847;SDS011;5477;48.806;9.154;2024-02-26T00:58:50;2.43;;;1.53;;
10847;SDS011;5477;48.806;9.154;2024-02-26T01:01:18;1.50;;;1.30;;
10847;SDS011;5477;48.806;9.154;2024-02-26T01:03:48;1.93;;;1.47;;
10847;SDS011;5477;48.806;9.154;2024-02-26T01:06:16;1.57;;;1.30;;
10847;SDS011;5477;48.806;9.154;2024-02-26T01:08:44;1.60;;;1.50;;
10847;SDS011;5477;48.806;9.154;2024-02-26T01:11:12;2.60;;;1.70;;
10847;SDS011;5477;48.806;9.154;2024-02-26T01:13:41;2.13;;;1.50;;
10847;SDS011;5477;48.806;9.154;2024-02-26T01:16:08;1.73;;;1.50;;
10847;SDS011;5477;48.806;9.154;2024-02-26T01:18:37;1.60;;;1.50;;
10847;SDS011;5477;48.806;9.154;2024-02-26T01:21:07;2.40;;;1.50;;
10847;SDS011;5477;48.806;9.154;2024-02-26T01:23:35;1.63;;;1.33;;
10847;SDS011;5477;48.806;9.154;2024-02-26T01:26:03;1.63;;;1.47;;
10847;SDS011;5477;48.806;9.154;2024-02-26T01:28:31;2.20;;;1.43;;
10847;SDS011;5477;48.806;9.154;2024-02-26T01:30:59;2.73;;;1.57;;
10847;SDS011;5477;48.806;9.154;2024-02-26T01:33:27;1.73;;;1.57;;
10847;SDS011;5477;48.806;9.154;2024-02-26T01:35:56;2.30;;;1.90;;
10847;SDS011;5477;48.806;9.154;2024-02-26T01:38:25;3.60;;;1.53;;
10847;SDS011;5477;48.806;9.154;2024-02-26T01:40:53;2.87;;;1.30;;
10847;SDS011;5477;48.806;9.154;2024-02-26T01:43:21;1.60;;;1.33;;
10847;SDS011;5477;48.806;9.154;2024-02-26T01:45:49;1.43;;;1.30;;
10847;SDS011;5477;48.806;9.154;2024-02-26T01:48:17;2.87;;;1.60;;
10847;SDS011;5477;48.806;9.154;2024-02-26T01:50:45;2.47;;;1.27;;
10847;SDS011;5477;48.806;9.154;2024-02-26T01:53:13;1.90;;;1.30;;
10847;SDS011;5477;48.806;9.154;2024-02-26T01:55:44;3.60;;;1.30;;
10847;SDS011;5477;48.806;9.154;2024-02-26T01:58:12;1.73;;;1.37;;
10847;SDS011;5477;48.806;9.154;2024-02-26T02:00:41;2.37;;;1.70;;
10847;SDS011;5477;48.806;9.154;2024-02-26T02:03:09;2.20;;;1.40;;
10847;SDS011;5477;48.806;9.154;2024-02-26T02:05:37;1.70;;;1.57;;
10847;SDS011;5477;48.806;9.154;2024-02-26T02:08:08;2.57;;;1.33;;
10847;SDS011;5477;48.806;9.154;2024-02-26T02:10:38;1.70;;;1.43;;
10847;SDS011;5477;48.806;9.154;2024-02-26T02:13:09;2.47;;;1.20;;
10847;SDS011;5477;48.806;9.154;2024-02-26T02:15:37;2.07;;;1.40;;
10847;SDS011;5477;48.806;9.154;2024-02-26T02:18:05;1.67;;;1.40;;
10847;SDS011;5477;48.806;9.154;2024-02-26T02:20:35;1.73;;;1.40;;
10847;SDS011;5477;48.806;9.154;2024-02-26T02:23:03;1.93;;;1.50;;
10847;SDS011;5477;48.806;9.154;2024-02-26T02:25:31;2.30;;;1.40;;
10847;SDS011;5477;48.806;9.154;2024-02-26T02:27:59;1.60;;;1.30;;
10847;SDS011;5477;48.806;9.154;2024-02-26T02:30:29;1.60;;;1.33;;
10847;SDS011;5477;48.806;9.154;2024-02-26T02:32:59;1.30;;;1.20;;
10847;SDS011;5477;48.806;9.154;2024-02-26T02:35:28;1.67;;;1.30;;
10847;SDS011;5477;48.806;9.154;2024-02-26T02:37:57;1.47;;;1.30;;
10847;SDS011;5477;48.806;9.154;2024-02-26T02:40:25;1.77;;;1.27;;
10847;SDS011;5477;48.806;9.154;2024-02-26T02:42:53;1.37;;;1.27;;
10847;SDS011;5477;48.806;9.154;2024-02-26T02:45:21;1.63;;;1.20;;
10847;SDS011;5477;48.806;9.154;2024-02-26T02:47:49;2.43;;;1.60;;
10847;SDS011;5477;48.806;9.154;2024-02-26T02:50:18;1.63;;;1.33;;
10847;SDS011;5477;48.806;9.154;2024-02-26T02:52:46;2.30;;;1.60;;
10847;SDS011;5477;48.806;9.154;2024-02-26T02:55:17;1.70;;;1.30;;
10847;SDS011;5477;48.806;9.154;2024-02-26T02:57:45;1.60;;;1.30;;
10847;SDS011;5477;48.806;9.154;2024-02-26T03:00:14;3.10;;;1.37;;
10847;SDS011;5477;48.806;9.154;2024-02-26T03:02:42;1.40;;;1.30;;
10847;SDS011;5477;48.806;9.154;2024-02-26T03:05:11;1.50;;;1.40;;
10847;SDS011;5477;48.806;9.154;2024-02-26T03:07:40;1.87;;;1.30;;
10847;SDS011;5477;48.806;9.154;2024-02-26T03:10:08;2.27;;;1.50;;
10847;SDS011;5477;48.806;9.154;2024-02-26T03:12:38;1.93;;;1.30;;
10847;SDS011;5477;48.806;9.154;2024-02-26T03:15:06;1.50;;;1.27;;
10847;SDS011;5477;48.806;9.154;2024-02-26T03:17:35;2.10;;;1.40;;
10847;SDS011;5477;48.806;9.154;2024-02-26T03:20:04;1.67;;;1.10;;
10847;SDS011;5477;48.806;9.154;2024-02-26T03:22:34;1.40;;;1.30;;
10847;SDS011;5477;48.806;9.154;2024-02-26T03:25:03;2.10;;;1.40;;
10847;SDS011;5477;48.806;9.154;2024-02-26T03:27:31;2.37;;;1.60;;
10847;SDS011;5477;48.806;9.154;2024-02-26T03:30:01;1.70;;;1.30;;
10847;SDS011;5477;48.806;9.154;2024-02-26T03:32:30;1.30;;;1.20;;
10847;SDS011;5477;48.806;9.154;2024-02-26T03:34:58;1.87;;;1.40;;
10847;SDS011;5477;48.806;9.154;2024-02-26T03:37:26;2.17;;;1.43;;
10847;SDS011;5477;48.806;9.154;2024-02-26T03:39:54;2.50;;;1.30;;
10847;SDS011;5477;48.806;9.154;2024-02-26T03:42:23;2.03;;;1.33;;
10847;SDS011;5477;48.806;9.154;2024-02-26T03:44:51;2.43;;;1.57;;
10847;SDS011;5477;48.806;9.154;2024-02-26T03:47:20;2.87;;;1.40;;
10847;SDS011;5477;48.806;9.154;2024-02-26T03:49:49;1.70;;;1.53;;
10847;SDS011;5477;48.806;9.154;2024-02-26T03:52:17;2.30;;;1.53;;
10847;SDS011;5477;48.806;9.154;2024-02-26T03:54:45;2.17;;;1.53;;
10847;SDS011;5477;48.806;9.154;2024-02-26T03:57:13;2.43;;;1.70;;
10847;SDS011;5477;48.806;9.154;2024-02-26T03:59:41;2.70;;;1.83;;
10847;SDS011;5477;48.806;9.154;2024-02-26T04:02:09;2.33;;;1.60;;
10847;SDS011;5477;48.806;9.154;2024-02-26T04:04:38;2.33;;;1.57;;
10847;SDS011;5477;48.806;9.154;2024-02-26T04:07:07;2.70;;;1.60;;
10847;SDS011;5477;48.806;9.154;2024-02-26T04:09:35;1.40;;;1.30;;
10847;SDS011;5477;48.806;9.154;2024-02-26T04:12:03;2.40;;;1.50;;
10847;SDS011;5477;48.806;9.154;2024-02-26T04:14:31;2.60;;;1.93;;
10847;SDS011;5477;48.806;9.154;2024-02-26T04:16:59;2.47;;;1.70;;
10847;SDS011;5477;48.806;9.154;2024-02-26T04:19:28;4.50;;;1.80;;
10847;SDS011;5477;48.806;9.154;2024-02-26T04:21:57;1.47;;;1.37;;
10847;SDS011;5477;48.806;9.154;2024-02-26T04:24:26;1.53;;;1.40;;
10847;SDS011;5477;48.806;9.154;2024-02-26T04:26:55;2.13;;;1.73;;
10847;SDS011;5477;48.806;9.154;2024-02-26T04:29:22;1.90;;;1.53;;
10847;SDS011;5477;48.806;9.154;2024-02-26T04:31:50;1.93;;;1.50;;
10847;SDS011;5477;48.806;9.154;2024-02-26T04:34:18;2.57;;;1.60;;
10847;SDS011;5477;48.806;9.154;2024-02-26T04:36:46;2.73;;;1.40;;
10847;SDS011;5477;48.806;9.154;2024-02-26T04:39:16;1.70;;;1.60;;
10847;SDS011;5477;48.806;9.154;2024-02-26T04:41:44;3.83;;;1.60;;
10847;SDS011;5477;48.806;9.154;2024-02-26T04:44:13;2.33;;;1.50;;
10847;SDS011;5477;48.806;9.154;2024-02-26T04:46:52;1.70;;;1.40;;
10847;SDS011;5477;48.806;9.154;2024-02-26T04:49:20;3.40;;;2.00;;
10847;SDS011;5477;48.806;9.154;2024-02-26T04:51:48;2.23;;;1.60;;
10847;SDS011;5477;48.806;9.154;2024-02-26T04:54:18;2.00;;;1.80;;
10847;SDS011;5477;48.806;9.154;2024-02-26T04:56:46;1.63;;;1.53;;
10847;SDS011;5477;48.806;9.154;2024-02-26T04:59:15;1.83;;;1.60;;
10847;SDS011;5477;48.806;9.154;2024-02-26T05:01:43;2.40;;;1.90;;
10847;SDS011;5477;48.806;9.154;2024-02-26T05:04:11;1.53;;;1.37;;
10847;SDS011;5477;48.806;9.154;2024-02-26T05:06:39;2.53;;;1.70;;
10847;SDS011;5477;48.806;9.154;2024-02-26T05:09:07;1.70;;;1.60;;
10847;SDS011;5477;48.806;9.154;2024-02-26T05:11:37;2.17;;;1.50;;
10847;SDS011;5477;48.806;9.154;2024-02-26T05:14:08;2.57;;;1.60;;
10847;SDS011;5477;48.806;9.154;2024-02-26T05:16:37;3.20;;;1.50;;
10847;SDS011;5477;48.806;9.154;2024-02-26T05:19:05;2.40;;;1.70;;
10847;SDS011;5477;48.806;9.154;2024-02-26T05:21:33;2.90;;;1.87;;
10847;SDS011;5477;48.806;9.154;2024-02-26T05:24:01;4.63;;;2.00;;
10847;SDS011;5477;48.806;9.154;2024-02-26T05:26:29;2.07;;;1.60;;
10847;SDS011;5477;48.806;9.154;2024-02-26T05:28:59;2.67;;;1.50;;
10847;SDS011;5477;48.806;9.154;2024-02-26T05:31:27;1.67;;;1.40;;
10847;SDS011;5477;48.806;9.154;2024-02-26T05:33:55;1.97;;;1.40;;
10847;SDS011;5477;48.806;9.154;2024-02-26T05:36:24;1.97;;;1.47;;
10847;SDS011;5477;48.806;9.154;2024-02-26T05:38:52;2.30;;;1.50;;
10847;SDS011;5477;48.806;9.154;2024-02-26T05:41:20;2.43;;;1.53;;
10847;SDS011;5477;48.806;9.154;2024-02-26T05:43:51;2.03;;;1.43;;
10847;SDS011;5477;48.806;9.154;2024-02-26T05:46:21;3.47;;;1.60;;
10847;SDS011;5477;48.806;9.154;2024-02-26T05:48:50;1.97;;;1.27;;
10847;SDS011;5477;48.806;9.154;2024-02-26T05:51:19;2.57;;;1.10;;
10847;SDS011;5477;48.806;9.154;2024-02-26T05:53:47;1.63;;;1.50;;
10847;SDS011;5477;48.806;9.154;2024-02-26T05:56:21;2.23;;;1.43;;
10847;SDS011;5477;48.806;9.154;2024-02-26T05:58:49;2.33;;;1.73;;
10847;SDS011;5477;48.806;9.154;2024-02-26T06:01:17;2.40;;;1.70;;
10847;SDS011;5477;48.806;9.154;2024-02-26T06:03:48;2.17;;;1.53;;
10847;SDS011;5477;48.806;9.154;2024-02-26T06:06:16;3.77;;;1.60;;
10847;SDS011;5477;48.806;9.154;2024-02-26T06:08:44;3.57;;;1.70;;
10847;SDS011;5477;48.806;9.154;2024-02-26T06:11:13;2.30;;;1.73;;
10847;SDS011;5477;48.806;9.154;2024-02-26T06:13:41;2.07;;;1.70;;
10847;SDS011;5477;48.806;9.154;2024-02-26T06:16:09;3.30;;;1.83;;
10847;SDS011;5477;48.806;9.154;2024-02-26T06:18:36;2.10;;;1.70;;
10847;SDS011;5477;48.806;9.154;2024-02-26T06:21:08;1.93;;;1.73;;
10847;SDS011;5477;48.806;9.154;2024-02-26T06:23:36;2.07;;;1.70;;
10847;SDS011;5477;48.806;9.154;2024-02-26T06:26:05;1.67;;;1.50;;
10847;SDS011;5477;48.806;9.154;2024-02-26T06:28:33;2.30;;;1.70;;
10847;SDS011;5477;48.806;9.154;2024-02-26T06:31:02;2.23;;;1.50;;
10847;SDS011;5477;48.806;9.154;2024-02-26T06:33:30;2.43;;;1.77;;
10847;SDS011;5477;48.806;9.154;2024-02-26T06:35:58;3.13;;;1.90;;
10847;SDS011;5477;48.806;9.154;2024-02-26T06:38:28;2.23;;;1.83;;
10847;SDS011;5477;48.806;9.154;2024-02-26T06:40:56;2.10;;;1.63;;
10847;SDS011;5477;48.806;9.154;2024-02-26T06:43:24;3.53;;;1.77;;
10847;SDS011;5477;48.806;9.154;2024-02-26T06:45:52;2.43;;;2.23;;
10847;SDS011;5477;48.806;9.154;2024-02-26T06:48:20;3.80;;;1.53;;
10847;SDS011;5477;48.806;9.154;2024-02-26T06:50:48;2.03;;;1.60;;
10847;SDS011;5477;48.806;9.154;2024-02-26T06:53:16;1.77;;;1.43;;
10847;SDS011;5477;48.806;9.154;2024-02-26T06:55:45;2.53;;;1.80;;
10847;SDS011;5477;48.806;9.154;2024-02-26T06:58:14;1.70;;;1.37;;
10847;SDS011;5477;48.806;9.154;2024-02-26T07:00:42;2.37;;;1.60;;
10847;SDS011;5477;48.806;9.154;2024-02-26T07:03:10;1.57;;;1.43;;
10847;SDS011;5477;48.806;9.154;2024-02-26T07:05:38;2.30;;;1.80;;
10847;SDS011;5477;48.806;9.154;2024-02-26T07:08:06;2.77;;;1.93;;
10847;SDS011;5477;48.806;9.154;2024-02-26T07:10:34;2.27;;;1.60;;
10847;SDS011;5477;48.806;9.154;2024-02-26T07:13:03;2.90;;;1.80;;
10847;SDS011;5477;48.806;9.154;2024-02-26T07:15:31;3.50;;;1.87;;
10847;SDS011;5477;48.806;9.154;2024-02-26T07:18:00;4.10;;;3.10;;
10847;SDS011;5477;48.806;9.154;2024-02-26T07:20:30;5.53;;;3.40;;
10847;SDS011;5477;48.806;9.154;2024-02-26T07:22:58;3.90;;;3.07;;
10847;SDS011;5477;48.806;9.154;2024-02-26T07:25:27;4.77;;;3.00;;
10847;SDS011;5477;48.806;9.154;2024-02-26T07:27:55;4.17;;;2.80;;
10847;SDS011;5477;48.806;9.154;2024-02-26T07:30:24;5.13;;;3.10;;
10847;SDS011;5477;48.806;9.154;2024-02-26T07:32:52;8.17;;;4.40;;
10847;SDS011;5477;48.806;9.154;2024-02-26T07:35:20;7.83;;;4.73;;
10847;SDS011;5477;48.806;9.154;2024-02-26T07:37:49;7.37;;;4.20;;
10847;SDS011;5477;48.806;9.154;2024-02-26T07:40:17;5.97;;;3.47;;
10847;SDS011;5477;48.806;9.154;2024-02-26T07:42:45;3.97;;;2.70;;
10847;SDS011;5477;48.806;9.154;2024-02-26T07:45:14;3.60;;;2.40;;
10847;SDS011;5477;48.806;9.154;2024-02-26T07:47:48;3.93;;;2.83;;
10847;SDS011;5477;48.806;9.154;2024-02-26T07:50:18;5.20;;;2.87;;
10847;SDS011;5477;48.806;9.154;2024-02-26T07:52:47;4.60;;;3.00;;
10847;SDS011;5477;48.806;9.154;2024-02-26T07:55:17;5.77;;;2.97;;
10847;SDS011;5477;48.806;9.154;2024-02-26T07:57:45;3.63;;;2.90;;
10847;SDS011;5477;48.806;9.154;2024-02-26T08:00:14;6.90;;;3.00;;
10847;SDS011;5477;48.806;9.154;2024-02-26T08:02:43;4.13;;;3.03;;
10847;SDS011;5477;48.806;9.154;2024-02-26T08:05:13;4.57;;;2.77;;
10847;SDS011;5477;48.806;9.154;2024-02-26T08:07:41;3.30;;;2.77;;
10847;SDS011;5477;48.806;9.154;2024-02-26T08:10:09;5.00;;;2.90;;
10847;SDS011;5477;48.806;9.154;2024-02-26T08:12:38;5.50;;;3.23;;
10847;SDS011;5477;48.806;9.154;2024-02-26T08:15:06;5.00;;;3.67;;
10847;SDS011;5477;48.806;9.154;2024-02-26T08:17:35;8.23;;;3.70;;
10847;SDS011;5477;48.806;9.154;2024-02-26T08:20:03;8.63;;;3.27;;
10847;SDS011;5477;48.806;9.154;2024-02-26T08:22:33;9.93;;;3.90;;
10847;SDS011;5477;48.806;9.154;2024-02-26T08:25:01;8.30;;;3.53;;
10847;SDS011;5477;48.806;9.154;2024-02-26T08:27:33;6.40;;;3.10;;
10847;SDS011;5477;48.806;9.154;2024-02-26T08:30:01;7.60;;;3.83;;
10847;SDS011;5477;48.806;9.154;2024-02-26T08:32:29;7.37;;;4.13;;
10847;SDS011;5477;48.806;9.154;2024-02-26T08:34:57;7.87;;;4.00;;
10847;SDS011;5477;48.806;9.154;2024-02-26T08:37:26;6.90;;;3.80;;
10847;SDS011;5477;48.806;9.154;2024-02-26T08:39:55;4.83;;;3.50;;
10847;SDS011;5477;48.806;9.154;2024-02-26T08:42:26;5.37;;;3.60;;
10847;SDS011;5477;48.806;9.154;2024-02-26T08:44:54;5.77;;;3.33;;
10847;SDS011;5477;48.806;9.154;2024-02-26T08:47:22;6.23;;;3.50;;
10847;SDS011;5477;48.806;9.154;2024-02-26T08:49:50;4.83;;;2.97;;
10847;SDS011;5477;48.806;9.154;2024-02-26T08:52:18;5.57;;;2.60;;
10847;SDS011;5477;48.806;9.154;2024-02-26T08:54:48;3.93;;;2.63;;
10847;SDS011;5477;48.806;9.154;2024-02-26T08:57:18;8.17;;;3.20;;
10847;SDS011;5477;48.806;9.154;2024-02-26T08:59:46;6.07;;;3.00;;
10847;SDS011;5477;48.806;9.154;2024-02-26T09:02:14;5.13;;;2.90;;
10847;SDS011;5477;48.806;9.154;2024-02-26T09:04:42;5.33;;;3.23;;
10847;SDS011;5477;48.806;9.154;2024-02-26T09:07:10;4.47;;;2.20;;
10847;SDS011;5477;48.806;9.154;2024-02-26T09:09:38;4.67;;;2.70;;
10847;SDS011;5477;48.806;9.154;2024-02-26T09:12:06;6.47;;;2.33;;
10847;SDS011;5477;48.806;9.154;2024-02-26T09:14:35;7.17;;;2.90;;
10847;SDS011;5477;48.806;9.154;2024-02-26T09:17:04;4.20;;;2.97;;
10847;SDS011;5477;48.806;9.154;2024-02-26T09:19:32;7.33;;;3.20;;
10847;SDS011;5477;48.806;9.154;2024-02-26T09:22:00;5.10;;;3.30;;
10847;SDS011;5477;48.806;9.154;2024-02-26T09:24:28;6.23;;;2.60;;
10847;SDS011;5477;48.806;9.154;2024-02-26T09:26:56;4.63;;;3.10;;
10847;SDS011;5477;48.806;9.154;2024-02-26T09:29:24;5.57;;;3.40;;
10847;SDS011;5477;48.806;9.154;2024-02-26T09:31:55;4.83;;;2.67;;
10847;SDS011;5477;48.806;9.154;2024-02-26T09:34:23;3.40;;;2.93;;
10847;SDS011;5477;48.806;9.154;2024-02-26T09:36:51;3.83;;;2.70;;
10847;SDS011;5477;48.806;9.154;2024-02-26T09:39:25;4.67;;;2.43;;
10847;SDS011;5477;48.806;9.154;2024-02-26T09:41:54;4.10;;;2.80;;
10847;SDS011;5477;48.806;9.154;2024-02-26T09:44:23;6.73;;;3.20;;
10847;SDS011;5477;48.806;9.154;2024-02-26T09:46:52;5.37;;;2.80;;
10847;SDS011;5477;48.806;9.154;2024-02-26T09:49:21;6.23;;;3.13;;
10847;SDS011;5477;48.806;9.154;2024-02-26T09:51:52;4.80;;;3.43;;
10847;SDS011;5477;48.806;9.154;2024-02-26T09:54:24;4.70;;;2.73;;
10847;SDS011;5477;48.806;9.154;2024-02-26T09:56:55;6.37;;;3.57;;
10847;SDS011;5477;48.806;9.154;2024-02-26T09:59:33;6.80;;;3.37;;
10847;SDS011;5477;48.806;9.154;2024-02-26T10:02:06;7.23;;;3.90;;
10847;SDS011;5477;48.806;9.154;2024-02-26T10:04:40;7.50;;;3.77;;
10847;SDS011;5477;48.806;9.154;2024-02-26T10:07:16;5.67;;;3.57;;
10847;SDS011;5477;48.806;9.154;2024-02-26T10:09:44;5.03;;;2.90;;
10847;SDS011;5477;48.806;9.154;2024-02-26T10:12:12;5.70;;;2.80;;
10847;SDS011;5477;48.806;9.154;2024-02-26T10:14:43;4.30;;;2.60;;
10847;SDS011;5477;48.806;9.154;2024-02-26T10:17:11;6.43;;;2.83;;
10847;SDS011;5477;48.806;9.154;2024-02-26T10:19:41;3.10;;;2.20;;
10847;SDS011;5477;48.806;9.154;2024-02-26T10:22:09;5.57;;;2.50;;
10847;SDS011;5477;48.806;9.154;2024-02-26T10:24:37;4.87;;;2.50;;
10847;SDS011;5477;48.806;9.154;2024-02-26T10:27:05;3.87;;;2.20;;
10847;SDS011;5477;48.806;9.154;2024-02-26T10:29:34;2.50;;;2.10;;
10847;SDS011;5477;48.806;9.154;2024-02-26T10:32:02;5.43;;;2.20;;
10847;SDS011;5477;48.806;9.154;2024-02-26T10:34:31;3.63;;;2.00;;
10847;SDS011;5477;48.806;9.154;2024-02-26T10:37:02;4.53;;;2.03;;
10847;SDS011;5477;48.806;9.154;2024-02-26T10:39:30;3.87;;;2.10;;
10847;SDS011;5477;48.806;9.154;2024-02-26T10:41:59;2.00;;;1.80;;
10847;SDS011;5477;48.806;9.154;2024-02-26T10:44:33;2.70;;;1.80;;
10847;SDS011;5477;48.806;9.154;2024-02-26T10:47:01;3.60;;;1.77;;
10847;SDS011;5477;48.806;9.154;2024-02-26T10:49:29;1.70;;;1.50;;
10847;SDS011;5477;48.806;9.154;2024-02-26T10:51:57;2.97;;;1.87;;
10847;SDS011;5477;48.806;9.154;2024-02-26T10:54:27;2.33;;;2.13;;
10847;SDS011;5477;48.806;9.154;2024-02-26T10:56:57;2.30;;;2.10;;
10847;SDS011;5477;48.806;9.154;2024-02-26T10:59:27;3.80;;;2.07;;
10847;SDS011;5477;48.806;9.154;2024-02-26T11:01:57;5.10;;;2.87;;
10847;SDS011;5477;48.806;9.154;2024-02-26T11:04:26;3.43;;;2.30;;
10847;SDS011;5477;48.806;9.154;2024-02-26T11:06:56;4.00;;;2.20;;
10847;SDS011;5477;48.806;9.154;2024-02-26T11:09:25;2.67;;;1.70;;
10847;SDS011;5477;48.806;9.154;2024-02-26T11:11:55;3.63;;;2.10;;
10847;SDS011;5477;48.806;9.154;2024-02-26T11:14:25;2.23;;;1.97;;
10847;SDS011;5477;48.806;9.154;2024-02-26T11:16:56;2.70;;;1.97;;
10847;SDS011;5477;48.806;9.154;2024-02-26T11:19:25;2.20;;;1.70;;
10847;SDS011;5477;48.806;9.154;2024-02-26T11:21:54;3.60;;;1.90;;
10847;SDS011;5477;48.806;9.154;2024-02-26T11:24:25;3.10;;;1.97;;
10847;SDS011;5477;48.806;9.154;2024-02-26T11:26:55;4.60;;;2.00;;
10847;SDS011;5477;48.806;9.154;2024-02-26T11:29:29;3.10;;;1.90;;
10847;SDS011;5477;48.806;9.154;2024-02-26T11:32:01;3.40;;;1.87;;
10847;SDS011;5477;48.806;9.154;2024-02-26T11:34:30;4.20;;;2.17;;
10847;SDS011;5477;48.806;9.154;2024-02-26T11:37:08;4.80;;;2.10;;
10847;SDS011;5477;48.806;9.154;2024-02-26T11:39:37;5.17;;;2.20;;
10847;SDS011;5477;48.806;9.154;2024-02-26T11:42:08;2.60;;;1.80;;
10847;SDS011;5477;48.806;9.154;2024-02-26T11:44:37;2.23;;;1.70;;
10847;SDS011;5477;48.806;9.154;2024-02-26T11:47:12;2.60;;;1.80;;
10847;SDS011;5477;48.806;9.154;2024-02-26T11:49:40;4.70;;;2.00;;
10847;SDS011;5477;48.806;9.154;2024-02-26T11:52:09;2.10;;;1.60;;
10847;SDS011;5477;48.806;9.154;2024-02-26T11:54:44;3.97;;;1.90;;
10847;SDS011;5477;48.806;9.154;2024-02-26T11:57:25;4.30;;;2.00;;
10847;SDS011;5477;48.806;9.154;2024-02-26T11:59:55;3.10;;;1.83;;
10847;SDS011;5477;48.806;9.154;2024-02-26T12:02:39;2.77;;;1.83;;
10847;SDS011;5477;48.806;9.154;2024-02-26T12:05:09;3.10;;;2.07;;
10847;SDS011;5477;48.806;9.154;2024-02-26T12:07:40;3.77;;;1.70;;
10847;SDS011;5477;48.806;9.154;2024-02-26T12:10:15;3.40;;;2.07;;
10847;SDS011;5477;48.806;9.154;2024-02-26T12:12:54;4.77;;;2.20;;
10847;SDS011;5477;48.806;9.154;2024-02-26T12:15:30;4.53;;;2.20;;
10847;SDS011;5477;48.806;9.154;2024-02-26T12:18:00;4.90;;;2.33;;
10847;SDS011;5477;48.806;9.154;2024-02-26T12:20:29;3.80;;;2.00;;
10847;SDS011;5477;48.806;9.154;2024-02-26T12:22:58;2.73;;;2.20;;
10847;SDS011;5477;48.806;9.154;2024-02-26T12:25:27;5.43;;;2.17;;
10847;SDS011;5477;48.806;9.154;2024-02-26T12:27:58;3.33;;;2.03;;
10847;SDS011;5477;48.806;9.154;2024-02-26T12:30:26;3.10;;;1.90;;
10847;SDS011;5477;48.806;9.154;2024-02-26T12:32:59;3.93;;;1.87;;
10847;SDS011;5477;48.806;9.154;2024-02-26T12:35:29;3.77;;;1.73;;
10847;SDS011;5477;48.806;9.154;2024-02-26T12:37:58;3.00;;;1.90;;
10847;SDS011;5477;48.806;9.154;2024-02-26T12:40:27;2.37;;;2.03;;
10847;SDS011;5477;48.806;9.154;2024-02-26T12:42:55;3.93;;;1.87;;
10847;SDS011;5477;48.806;9.154;2024-02-26T12:45:25;2.47;;;1.50;;
10847;SDS011;5477;48.806;9.154;2024-02-26T12:47:54;2.43;;;1.73;;
10847;SDS011;5477;48.806;9.154;2024-02-26T12:50:23;2.60;;;1.83;;
10847;SDS011;5477;48.806;9.154;2024-02-26T12:52:52;3.10;;;1.70;;
10847;SDS011;5477;48.806;9.154;2024-02-26T12:55:20;5.27;;;1.80;;
10847;SDS011;5477;48.806;9.154;2024-02-26T12:57:49;3.20;;;1.70;;
10847;SDS011;5477;48.806;9.154;2024-02-26T13:00:27;2.43;;;1.50;;
10847;SDS011;5477;48.806;9.154;2024-02-26T13:02:55;3.90;;;1.90;;
10847;SDS011;5477;48.806;9.154;2024-02-26T13:05:26;1.97;;;1.40;;
10847;SDS011;5477;48.806;9.154;2024-02-26T13:07:55;1.60;;;1.30;;
10847;SDS011;5477;48.806;9.154;2024-02-26T13:10:23;4.17;;;2.43;;
10847;SDS011;5477;48.806;9.154;2024-02-26T13:12:51;2.23;;;1.50;;
10847;SDS011;5477;48.806;9.154;2024-02-26T13:15:21;1.93;;;1.37;;
10847;SDS011;5477;48.806;9.154;2024-02-26T13:17:49;5.50;;;1.30;;
10847;SDS011;5477;48.806;9.154;2024-02-26T13:20:26;2.03;;;1.50;;
10847;SDS011;5477;48.806;9.154;2024-02-26T13:23:02;2.70;;;2.00;;
10847;SDS011;5477;48.806;9.154;2024-02-26T13:25:31;5.40;;;1.70;;
10847;SDS011;5477;48.806;9.154;2024-02-26T13:28:06;6.13;;;2.80;;
10847;SDS011;5477;48.806;9.154;2024-02-26T13:30:37;4.50;;;2.70;;
10847;SDS011;5477;48.806;9.154;2024-02-26T13:33:10;2.37;;;1.77;;
10847;SDS011;5477;48.806;9.154;2024-02-26T13:35:39;2.60;;;1.50;;
10847;SDS011;5477;48.806;9.154;2024-02-26T13:38:07;2.13;;;1.60;;
10847;SDS011;5477;48.806;9.154;2024-02-26T13:40:36;1.43;;;1.33;;
10847;SDS011;5477;48.806;9.154;2024-02-26T13:43:05;3.00;;;1.90;;
10847;SDS011;5477;48.806;9.154;2024-02-26T13:45:33;2.13;;;1.40;;
10847;SDS011;5477;48.806;9.154;2024-02-26T13:48:07;1.70;;;1.23;;
10847;SDS011;5477;48.806;9.154;2024-02-26T13:50:37;2.60;;;1.30;;
10847;SDS011;5477;48.806;9.154;2024-02-26T13:53:05;4.37;;;1.30;;
10847;SDS011;5477;48.806;9.154;2024-02-26T13:55:34;2.77;;;1.30;;
10847;SDS011;5477;48.806;9.154;2024-02-26T13:58:02;1.17;;;1.07;;
10847;SDS011;5477;48.806;9.154;2024-02-26T14:00:31;1.90;;;1.13;;
10847;SDS011;5477;48.806;9.154;2024-02-26T14:03:00;3.13;;;1.17;;
10847;SDS011;5477;48.806;9.154;2024-02-26T14:05:31;3.00;;;1.20;;
10847;SDS011;5477;48.806;9.154;2024-02-26T14:07:59;4.40;;;1.40;;
10847;SDS011;5477;48.806;9.154;2024-02-26T14:10:28;2.73;;;1.30;;
10847;SDS011;5477;48.806;9.154;2024-02-26T14:12:56;2.17;;;1.80;;
10847;SDS011;5477;48.806;9.154;2024-02-26T14:15:25;4.27;;;1.80;;
10847;SDS011;5477;48.806;9.154;2024-02-26T14:17:53;3.40;;;1.60;;
10847;SDS011;5477;48.806;9.154;2024-02-26T14:20:23;4.93;;;1.73;;
10847;SDS011;5477;48.806;9.154;2024-02-26T14:22:53;3.43;;;1.23;;
10847;SDS011;5477;48.806;9.154;2024-02-26T14:25:21;1.53;;;1.00;;
10847;SDS011;5477;48.806;9.154;2024-02-26T14:27:53;1.20;;;0.90;;
10847;SDS011;5477;48.806;9.154;2024-02-26T14:30:23;1.47;;;1.00;;
10847;SDS011;5477;48.806;9.154;2024-02-26T14:32:52;1.20;;;0.90;;
10847;SDS011;5477;48.806;9.154;2024-02-26T14:35:20;1.10;;;0.80;;
10847;SDS011;5477;48.806;9.154;2024-02-26T14:37:49;1.80;;;0.80;;
10847;SDS011;5477;48.806;9.154;2024-02-26T14:40:19;0.90;;;0.70;;
10847;SDS011;5477;48.806;9.154;2024-02-26T14:42:48;1.07;;;0.97;;
10847;SDS011;5477;48.806;9.154;2024-02-26T14:45:16;1.83;;;0.77;;
10847;SDS011;5477;48.806;9.154;2024-02-26T14:47:44;0.93;;;0.87;;
10847;SDS011;5477;48.806;9.154;2024-02-26T14:50:12;0.93;;;0.90;;
10847;SDS011;5477;48.806;9.154;2024-02-26T14:52:40;1.90;;;0.90;;
10847;SDS011;5477;48.806;9.154;2024-02-26T14:55:08;5.57;;;2.73;;
10847;SDS011;5477;48.806;9.154;2024-02-26T14:57:37;3.13;;;1.20;;
10847;SDS011;5477;48.806;9.154;2024-02-26T15:00:06;1.37;;;1.00;;
10847;SDS011;5477;48.806;9.154;2024-02-26T15:02:36;1.87;;;1.27;;
10847;SDS011;5477;48.806;9.154;2024-02-26T15:05:04;2.37;;;1.10;;
10847;SDS011;5477;48.806;9.154;2024-02-26T15:07:34;4.23;;;1.60;;
10847;SDS011;5477;48.806;9.154;2024-02-26T15:10:07;2.60;;;1.60;;
10847;SDS011;5477;48.806;9.154;2024-02-26T15:12:35;3.33;;;1.70;;